sensor_id;sensor_type;location;lat;lon;timestamp;P1;durP1;ratioP1;P2;durP2;ratioP2
74920;SDS011;63483;47.384;8.860;2022-10-29T00:01:10;9.63;;;1.40;;
74920;SDS011;63483;47.384;8.860;2022-10-29T00:03:35;8.63;;;1.40;;
74920;SDS011;63483;47.384;8.860;2022-10-29T00:06:02;8.13;;;2.03;;
74920;SDS011;63483;47.384;8.860;2022-10-29T00:08:30;8.45;;;2.08;;
74920;SDS011;63483;47.384;8.860;2022-10-29T00:11:04;8.07;;;1.63;;
74920;SDS011;63483;47.384;8.860;2022-10-29T00:13:34;7.65;;;2.20;;
74920;SDS011;63483;47.384;8.860;2022-10-29T00:16:04;8.40;;;1.95;;
74920;SDS011;63483;47.384;8.860;2022-10-29T00:18:34;9.10;;;1.33;;
74920;SDS011;63483;47.384;8.860;2022-10-29T00:21:00;7.20;;;1.80;;
74920;SDS011;63483;47.384;8.860;2022-10-29T00:23:26;5.30;;;1.80;;
74920;SDS011;63483;47.384;8.860;2022-10-29T00:25:56;7.15;;;1.77;;
74920;SDS011;63483;47.384;8.860;2022-10-29T00:28:25;7.23;;;2.13;;
74920;SDS011;63483;47.384;8.860;2022-10-29T00:30:51;7.15;;;1.88;;
74920;SDS011;63483;47.384;8.860;2022-10-29T00:33:16;5.47;;;1.30;;
74920;SDS011;63483;47.384;8.860;2022-10-29T00:35:57;10.90;;;1.80;;
74920;SDS011;63483;47.384;8.860;2022-10-29T00:38:24;7.07;;;1.50;;
74920;SDS011;63483;47.384;8.860;2022-10-29T00:40:50;8.32;;;1.60;;
74920;SDS011;63483;47.384;8.860;2022-10-29T00:43:17;7.38;;;1.50;;
74920;SDS011;63483;47.384;8.860;2022-10-29T00:46:04;11.23;;;1.80;;
74920;SDS011;63483;47.384;8.860;2022-10-29T00:48:35;7.35;;;1.40;;
74920;SDS011;63483;47.384;8.860;2022-10-29T00:51:04;6.50;;;1.65;;
74920;SDS011;63483;47.384;8.860;2022-10-29T00:53:33;5.68;;;1.63;;
74920;SDS011;63483;47.384;8.860;2022-10-29T00:56:03;7.82;;;2.35;;
74920;SDS011;63483;47.384;8.860;2022-10-29T00:58:29;5.27;;;1.43;;
74920;SDS011;63483;47.384;8.860;2022-10-29T01:00:55;8.63;;;1.60;;
74920;SDS011;63483;47.384;8.860;2022-10-29T01:03:20;7.97;;;1.63;;
74920;SDS011;63483;47.384;8.860;2022-10-29T01:05:46;5.47;;;1.60;;
74920;SDS011;63483;47.384;8.860;2022-10-29T01:08:13;7.30;;;1.63;;
74920;SDS011;63483;47.384;8.860;2022-10-29T01:10:44;11.02;;;2.10;;
74920;SDS011;63483;47.384;8.860;2022-10-29T01:16:24;9.03;;;2.13;;
74920;SDS011;63483;47.384;8.860;2022-10-29T01:19:03;8.75;;;1.77;;
74920;SDS011;63483;47.384;8.860;2022-10-29T01:21:44;8.85;;;2.03;;
74920;SDS011;63483;47.384;8.860;2022-10-29T01:32:50;4.55;;;1.30;;
74920;SDS011;63483;47.384;8.860;2022-10-29T01:35:56;6.43;;;1.10;;
74920;SDS011;63483;47.384;8.860;2022-10-29T01:38:41;7.47;;;1.30;;
74920;SDS011;63483;47.384;8.860;2022-10-29T01:41:20;6.05;;;1.77;;
74920;SDS011;63483;47.384;8.860;2022-10-29T01:43:58;6.10;;;1.15;;
74920;SDS011;63483;47.384;8.860;2022-10-29T01:46:30;8.70;;;1.27;;
74920;SDS011;63483;47.384;8.860;2022-10-29T01:48:59;5.90;;;1.67;;
74920;SDS011;63483;47.384;8.860;2022-10-29T01:51:29;7.90;;;1.98;;
74920;SDS011;63483;47.384;8.860;2022-10-29T01:53:58;8.68;;;1.42;;
74920;SDS011;63483;47.384;8.860;2022-10-29T01:56:25;6.78;;;1.50;;
74920;SDS011;63483;47.384;8.860;2022-10-29T01:58:52;10.93;;;1.88;;
74920;SDS011;63483;47.384;8.860;2022-10-29T02:06:58;12.50;;;1.10;;
74920;SDS011;63483;47.384;8.860;2022-10-29T02:09:46;6.07;;;1.65;;
74920;SDS011;63483;47.384;8.860;2022-10-29T02:12:20;6.03;;;1.33;;
74920;SDS011;63483;47.384;8.860;2022-10-29T02:14:57;10.83;;;1.40;;
74920;SDS011;63483;47.384;8.860;2022-10-29T02:17:24;7.40;;;1.35;;
74920;SDS011;63483;47.384;8.860;2022-10-29T02:19:49;8.27;;;1.97;;
74920;SDS011;63483;47.384;8.860;2022-10-29T02:22:15;6.40;;;1.53;;
74920;SDS011;63483;47.384;8.860;2022-10-29T02:24:40;11.57;;;2.57;;
74920;SDS011;63483;47.384;8.860;2022-10-29T02:27:05;10.50;;;1.83;;
74920;SDS011;63483;47.384;8.860;2022-10-29T02:29:32;7.22;;;1.73;;
74920;SDS011;63483;47.384;8.860;2022-10-29T02:31:57;9.73;;;1.97;;
74920;SDS011;63483;47.384;8.860;2022-10-29T02:34:22;4.87;;;1.53;;
74920;SDS011;63483;47.384;8.860;2022-10-29T02:36:48;7.33;;;1.67;;
74920;SDS011;63483;47.384;8.860;2022-10-29T02:39:13;6.33;;;1.50;;
74920;SDS011;63483;47.384;8.860;2022-10-29T02:41:38;7.83;;;1.50;;
74920;SDS011;63483;47.384;8.860;2022-10-29T02:44:04;9.57;;;1.70;;
74920;SDS011;63483;47.384;8.860;2022-10-29T02:46:29;9.38;;;1.70;;
74920;SDS011;63483;47.384;8.860;2022-10-29T02:48:54;10.80;;;1.50;;
74920;SDS011;63483;47.384;8.860;2022-10-29T02:51:20;11.80;;;2.07;;
74920;SDS011;63483;47.384;8.860;2022-10-29T02:53:45;7.23;;;1.57;;
74920;SDS011;63483;47.384;8.860;2022-10-29T02:56:11;6.87;;;1.30;;
74920;SDS011;63483;47.384;8.860;2022-10-29T02:58:36;9.18;;;1.48;;
74920;SDS011;63483;47.384;8.860;2022-10-29T03:01:02;10.47;;;1.40;;
74920;SDS011;63483;47.384;8.860;2022-10-29T03:03:27;11.50;;;2.00;;
74920;SDS011;63483;47.384;8.860;2022-10-29T03:05:53;6.53;;;1.10;;
74920;SDS011;63483;47.384;8.860;2022-10-29T03:08:18;6.10;;;0.97;;
74920;SDS011;63483;47.384;8.860;2022-10-29T03:10:44;6.97;;;1.35;;
74920;SDS011;63483;47.384;8.860;2022-10-29T03:13:09;10.13;;;1.50;;
74920;SDS011;63483;47.384;8.860;2022-10-29T03:15:35;6.90;;;1.67;;
74920;SDS011;63483;47.384;8.860;2022-10-29T03:18:01;7.50;;;1.30;;
74920;SDS011;63483;47.384;8.860;2022-10-29T03:20:27;6.85;;;1.83;;
74920;SDS011;63483;47.384;8.860;2022-10-29T03:22:52;6.17;;;1.40;;
74920;SDS011;63483;47.384;8.860;2022-10-29T03:25:18;4.77;;;1.10;;
74920;SDS011;63483;47.384;8.860;2022-10-29T03:27:43;6.30;;;2.03;;
74920;SDS011;63483;47.384;8.860;2022-10-29T03:30:14;7.65;;;1.20;;
74920;SDS011;63483;47.384;8.860;2022-10-29T03:32:41;5.10;;;1.20;;
74920;SDS011;63483;47.384;8.860;2022-10-29T03:35:12;5.28;;;1.30;;
74920;SDS011;63483;47.384;8.860;2022-10-29T03:37:38;8.73;;;1.55;;
74920;SDS011;63483;47.384;8.860;2022-10-29T03:40:04;10.13;;;1.57;;
74920;SDS011;63483;47.384;8.860;2022-10-29T03:42:30;6.43;;;2.08;;
74920;SDS011;63483;47.384;8.860;2022-10-29T03:44:58;5.43;;;1.23;;
74920;SDS011;63483;47.384;8.860;2022-10-29T03:47:25;9.80;;;1.85;;
74920;SDS011;63483;47.384;8.860;2022-10-29T03:49:52;6.97;;;1.40;;
74920;SDS011;63483;47.384;8.860;2022-10-29T03:52:18;9.00;;;1.60;;
74920;SDS011;63483;47.384;8.860;2022-10-29T03:54:43;6.27;;;1.50;;
74920;SDS011;63483;47.384;8.860;2022-10-29T03:57:08;6.13;;;1.53;;
74920;SDS011;63483;47.384;8.860;2022-10-29T03:59:34;7.63;;;1.67;;
74920;SDS011;63483;47.384;8.860;2022-10-29T04:01:59;8.87;;;1.70;;
74920;SDS011;63483;47.384;8.860;2022-10-29T04:04:24;6.90;;;1.57;;
74920;SDS011;63483;47.384;8.860;2022-10-29T04:06:50;7.33;;;1.63;;
74920;SDS011;63483;47.384;8.860;2022-10-29T04:09:15;5.03;;;1.13;;
74920;SDS011;63483;47.384;8.860;2022-10-29T04:11:40;6.72;;;1.65;;
74920;SDS011;63483;47.384;8.860;2022-10-29T04:14:06;4.43;;;1.10;;
74920;SDS011;63483;47.384;8.860;2022-10-29T04:16:31;9.37;;;1.17;;
74920;SDS011;63483;47.384;8.860;2022-10-29T04:18:56;6.60;;;1.30;;
74920;SDS011;63483;47.384;8.860;2022-10-29T04:21:23;6.50;;;1.67;;
74920;SDS011;63483;47.384;8.860;2022-10-29T04:23:48;8.37;;;1.53;;
74920;SDS011;63483;47.384;8.860;2022-10-29T04:26:14;11.43;;;2.45;;
74920;SDS011;63483;47.384;8.860;2022-10-29T04:28:39;7.57;;;1.93;;
74920;SDS011;63483;47.384;8.860;2022-10-29T04:31:05;5.97;;;1.87;;
74920;SDS011;63483;47.384;8.860;2022-10-29T04:33:31;7.93;;;1.77;;
74920;SDS011;63483;47.384;8.860;2022-10-29T04:35:57;7.32;;;1.65;;
74920;SDS011;63483;47.384;8.860;2022-10-29T04:38:22;9.83;;;1.60;;
74920;SDS011;63483;47.384;8.860;2022-10-29T04:40:48;10.87;;;1.70;;
74920;SDS011;63483;47.384;8.860;2022-10-29T04:43:14;6.13;;;1.50;;
74920;SDS011;63483;47.384;8.860;2022-10-29T04:45:39;7.25;;;1.30;;
74920;SDS011;63483;47.384;8.860;2022-10-29T04:48:05;9.80;;;1.53;;
74920;SDS011;63483;47.384;8.860;2022-10-29T04:50:31;7.38;;;2.28;;
74920;SDS011;63483;47.384;8.860;2022-10-29T04:52:58;7.63;;;1.83;;
74920;SDS011;63483;47.384;8.860;2022-10-29T04:55:27;10.73;;;1.92;;
74920;SDS011;63483;47.384;8.860;2022-10-29T04:57:53;11.20;;;1.70;;
74920;SDS011;63483;47.384;8.860;2022-10-29T05:00:19;10.95;;;1.95;;
74920;SDS011;63483;47.384;8.860;2022-10-29T05:02:48;8.63;;;2.17;;
74920;SDS011;63483;47.384;8.860;2022-10-29T05:05:15;7.85;;;1.80;;
74920;SDS011;63483;47.384;8.860;2022-10-29T05:07:41;8.88;;;2.17;;
74920;SDS011;63483;47.384;8.860;2022-10-29T05:10:07;8.27;;;1.70;;
74920;SDS011;63483;47.384;8.860;2022-10-29T05:12:33;6.72;;;1.75;;
74920;SDS011;63483;47.384;8.860;2022-10-29T05:14:58;6.90;;;1.50;;
74920;SDS011;63483;47.384;8.860;2022-10-29T05:17:23;6.93;;;1.90;;
74920;SDS011;63483;47.384;8.860;2022-10-29T05:19:49;6.57;;;1.40;;
74920;SDS011;63483;47.384;8.860;2022-10-29T05:22:14;5.73;;;1.70;;
74920;SDS011;63483;47.384;8.860;2022-10-29T05:24:39;6.18;;;1.90;;
74920;SDS011;63483;47.384;8.860;2022-10-29T05:27:05;12.70;;;2.53;;
74920;SDS011;63483;47.384;8.860;2022-10-29T05:29:30;10.97;;;2.47;;
74920;SDS011;63483;47.384;8.860;2022-10-29T05:31:56;6.10;;;2.93;;
74920;SDS011;63483;47.384;8.860;2022-10-29T05:34:21;9.15;;;2.25;;
74920;SDS011;63483;47.384;8.860;2022-10-29T05:36:47;10.60;;;2.80;;
74920;SDS011;63483;47.384;8.860;2022-10-29T05:39:13;10.32;;;3.45;;
74920;SDS011;63483;47.384;8.860;2022-10-29T05:41:38;12.40;;;3.83;;
74920;SDS011;63483;47.384;8.860;2022-10-29T05:44:03;13.63;;;4.23;;
74920;SDS011;63483;47.384;8.860;2022-10-29T05:46:29;8.17;;;3.83;;
74920;SDS011;63483;47.384;8.860;2022-10-29T05:48:54;7.90;;;3.93;;
74920;SDS011;63483;47.384;8.860;2022-10-29T05:51:20;9.55;;;4.03;;
74920;SDS011;63483;47.384;8.860;2022-10-29T05:53:46;10.57;;;3.83;;
74920;SDS011;63483;47.384;8.860;2022-10-29T05:56:11;13.90;;;5.20;;
74920;SDS011;63483;47.384;8.860;2022-10-29T05:58:37;10.77;;;4.57;;
74920;SDS011;63483;47.384;8.860;2022-10-29T06:01:04;9.17;;;3.90;;
74920;SDS011;63483;47.384;8.860;2022-10-29T06:03:33;9.25;;;5.80;;
74920;SDS011;63483;47.384;8.860;2022-10-29T06:05:59;13.43;;;6.30;;
74920;SDS011;63483;47.384;8.860;2022-10-29T06:08:24;15.20;;;6.83;;
74920;SDS011;63483;47.384;8.860;2022-10-29T06:10:50;11.83;;;5.03;;
74920;SDS011;63483;47.384;8.860;2022-10-29T06:13:16;13.60;;;5.38;;
74920;SDS011;63483;47.384;8.860;2022-10-29T06:15:46;13.17;;;4.97;;
74920;SDS011;63483;47.384;8.860;2022-10-29T06:18:12;9.48;;;4.07;;
74920;SDS011;63483;47.384;8.860;2022-10-29T06:20:38;10.93;;;4.53;;
74920;SDS011;63483;47.384;8.860;2022-10-29T06:23:04;9.57;;;4.13;;
74920;SDS011;63483;47.384;8.860;2022-10-29T06:25:30;12.60;;;4.97;;
74920;SDS011;63483;47.384;8.860;2022-10-29T06:28:05;10.32;;;4.60;;
74920;SDS011;63483;47.384;8.860;2022-10-29T06:30:32;12.63;;;6.03;;
74920;SDS011;63483;47.384;8.860;2022-10-29T06:32:59;14.75;;;6.38;;
74920;SDS011;63483;47.384;8.860;2022-10-29T06:35:24;18.23;;;8.57;;
74920;SDS011;63483;47.384;8.860;2022-10-29T06:37:50;14.10;;;5.97;;
74920;SDS011;63483;47.384;8.860;2022-10-29T06:40:16;13.53;;;7.03;;
74920;SDS011;63483;47.384;8.860;2022-10-29T06:42:42;16.20;;;6.63;;
74920;SDS011;63483;47.384;8.860;2022-10-29T06:45:07;15.77;;;6.95;;
74920;SDS011;63483;47.384;8.860;2022-10-29T06:47:38;15.38;;;7.13;;
74920;SDS011;63483;47.384;8.860;2022-10-29T06:50:07;14.77;;;6.67;;
74920;SDS011;63483;47.384;8.860;2022-10-29T06:52:34;15.38;;;5.95;;
74920;SDS011;63483;47.384;8.860;2022-10-29T06:54:59;13.88;;;5.82;;
74920;SDS011;63483;47.384;8.860;2022-10-29T06:57:26;13.73;;;6.22;;
74920;SDS011;63483;47.384;8.860;2022-10-29T06:59:52;11.37;;;5.27;;
74920;SDS011;63483;47.384;8.860;2022-10-29T07:02:18;15.05;;;6.00;;
74920;SDS011;63483;47.384;8.860;2022-10-29T07:04:45;13.73;;;5.50;;
74920;SDS011;63483;47.384;8.860;2022-10-29T07:07:10;19.07;;;7.20;;
74920;SDS011;63483;47.384;8.860;2022-10-29T07:09:35;13.07;;;4.73;;
74920;SDS011;63483;47.384;8.860;2022-10-29T07:12:01;15.00;;;4.50;;
74920;SDS011;63483;47.384;8.860;2022-10-29T07:14:26;12.73;;;4.27;;
74920;SDS011;63483;47.384;8.860;2022-10-29T07:16:51;10.43;;;4.20;;
74920;SDS011;63483;47.384;8.860;2022-10-29T07:19:17;10.00;;;4.03;;
74920;SDS011;63483;47.384;8.860;2022-10-29T07:21:44;13.27;;;4.37;;
74920;SDS011;63483;47.384;8.860;2022-10-29T07:24:09;9.10;;;3.43;;
74920;SDS011;63483;47.384;8.860;2022-10-29T07:26:35;7.88;;;3.40;;
74920;SDS011;63483;47.384;8.860;2022-10-29T07:29:00;10.67;;;3.90;;
74920;SDS011;63483;47.384;8.860;2022-10-29T07:31:27;9.03;;;2.93;;
74920;SDS011;63483;47.384;8.860;2022-10-29T07:33:53;7.63;;;3.78;;
74920;SDS011;63483;47.384;8.860;2022-10-29T07:36:19;7.68;;;3.00;;
74920;SDS011;63483;47.384;8.860;2022-10-29T07:38:45;7.57;;;3.10;;
74920;SDS011;63483;47.384;8.860;2022-10-29T07:41:11;10.75;;;3.72;;
74920;SDS011;63483;47.384;8.860;2022-10-29T07:43:36;9.37;;;3.00;;
74920;SDS011;63483;47.384;8.860;2022-10-29T07:46:01;11.33;;;3.10;;
74920;SDS011;63483;47.384;8.860;2022-10-29T07:48:27;11.70;;;3.17;;
74920;SDS011;63483;47.384;8.860;2022-10-29T07:50:52;8.67;;;2.60;;
74920;SDS011;63483;47.384;8.860;2022-10-29T07:53:17;9.67;;;3.07;;
74920;SDS011;63483;47.384;8.860;2022-10-29T07:55:43;10.23;;;2.60;;
74920;SDS011;63483;47.384;8.860;2022-10-29T07:58:09;8.30;;;3.13;;
74920;SDS011;63483;47.384;8.860;2022-10-29T08:00:36;8.35;;;2.50;;
74920;SDS011;63483;47.384;8.860;2022-10-29T08:03:03;8.93;;;2.45;;
74920;SDS011;63483;47.384;8.860;2022-10-29T08:05:30;8.18;;;2.33;;
74920;SDS011;63483;47.384;8.860;2022-10-29T08:07:56;9.97;;;2.00;;
74920;SDS011;63483;47.384;8.860;2022-10-29T08:10:22;11.18;;;2.35;;
74920;SDS011;63483;47.384;8.860;2022-10-29T08:12:48;7.97;;;2.10;;
74920;SDS011;63483;47.384;8.860;2022-10-29T08:15:15;5.03;;;1.97;;
74920;SDS011;63483;47.384;8.860;2022-10-29T08:17:41;9.63;;;2.15;;
74920;SDS011;63483;47.384;8.860;2022-10-29T08:20:06;10.77;;;2.43;;
74920;SDS011;63483;47.384;8.860;2022-10-29T08:22:32;7.43;;;2.10;;
74920;SDS011;63483;47.384;8.860;2022-10-29T08:24:58;9.40;;;2.63;;
74920;SDS011;63483;47.384;8.860;2022-10-29T08:27:23;9.77;;;2.80;;
74920;SDS011;63483;47.384;8.860;2022-10-29T08:29:48;17.55;;;4.47;;
74920;SDS011;63483;47.384;8.860;2022-10-29T08:32:14;17.23;;;4.37;;
74920;SDS011;63483;47.384;8.860;2022-10-29T08:34:39;11.40;;;3.13;;
74920;SDS011;63483;47.384;8.860;2022-10-29T08:37:04;17.37;;;5.70;;
74920;SDS011;63483;47.384;8.860;2022-10-29T08:39:30;12.50;;;5.17;;
74920;SDS011;63483;47.384;8.860;2022-10-29T08:41:58;12.57;;;4.17;;
74920;SDS011;63483;47.384;8.860;2022-10-29T08:47:30;19.08;;;5.72;;
74920;SDS011;63483;47.384;8.860;2022-10-29T08:50:35;23.20;;;6.27;;
74920;SDS011;63483;47.384;8.860;2022-10-29T08:53:08;21.50;;;8.75;;
74920;SDS011;63483;47.384;8.860;2022-10-29T08:55:41;25.30;;;8.57;;
74920;SDS011;63483;47.384;8.860;2022-10-29T08:58:30;28.85;;;10.30;;
74920;SDS011;63483;47.384;8.860;2022-10-29T09:00:57;22.38;;;8.90;;
74920;SDS011;63483;47.384;8.860;2022-10-29T09:03:23;25.67;;;8.77;;
74920;SDS011;63483;47.384;8.860;2022-10-29T09:08:52;24.77;;;11.82;;
74920;SDS011;63483;47.384;8.860;2022-10-29T09:14:09;23.42;;;9.73;;
74920;SDS011;63483;47.384;8.860;2022-10-29T09:16:50;18.60;;;7.20;;
74920;SDS011;63483;47.384;8.860;2022-10-29T09:33:27;15.50;;;5.72;;
74920;SDS011;63483;47.384;8.860;2022-10-29T09:35:54;13.48;;;5.43;;
74920;SDS011;63483;47.384;8.860;2022-10-29T09:38:24;15.60;;;5.37;;
74920;SDS011;63483;47.384;8.860;2022-10-29T09:40:55;14.38;;;5.32;;
74920;SDS011;63483;47.384;8.860;2022-10-29T09:48:44;17.25;;;5.28;;
74920;SDS011;63483;47.384;8.860;2022-10-29T09:53:56;11.48;;;4.47;;
74920;SDS011;63483;47.384;8.860;2022-10-29T09:56:21;14.80;;;4.23;;
74920;SDS011;63483;47.384;8.860;2022-10-29T09:58:48;12.57;;;4.40;;
74920;SDS011;63483;47.384;8.860;2022-10-29T10:01:19;13.50;;;4.30;;
74920;SDS011;63483;47.384;8.860;2022-10-29T10:03:46;15.95;;;4.65;;
74920;SDS011;63483;47.384;8.860;2022-10-29T10:06:17;13.65;;;4.22;;
74920;SDS011;63483;47.384;8.860;2022-10-29T10:09:16;13.07;;;4.40;;
74920;SDS011;63483;47.384;8.860;2022-10-29T10:11:38;14.50;;;4.28;;
74920;SDS011;63483;47.384;8.860;2022-10-29T10:14:08;11.98;;;3.45;;
74920;SDS011;63483;47.384;8.860;2022-10-29T10:16:44;12.23;;;3.40;;
74920;SDS011;63483;47.384;8.860;2022-10-29T10:19:20;11.23;;;3.73;;
74920;SDS011;63483;47.384;8.860;2022-10-29T10:21:54;13.65;;;4.13;;
74920;SDS011;63483;47.384;8.860;2022-10-29T10:24:28;16.27;;;3.83;;
74920;SDS011;63483;47.384;8.860;2022-10-29T10:26:55;14.30;;;3.70;;
74920;SDS011;63483;47.384;8.860;2022-10-29T10:29:21;14.73;;;3.40;;
74920;SDS011;63483;47.384;8.860;2022-10-29T10:37:03;11.35;;;2.78;;
74920;SDS011;63483;47.384;8.860;2022-10-29T10:42:01;13.63;;;2.87;;
74920;SDS011;63483;47.384;8.860;2022-10-29T10:44:29;13.40;;;4.22;;
74920;SDS011;63483;47.384;8.860;2022-10-29T10:46:56;9.83;;;3.07;;
74920;SDS011;63483;47.384;8.860;2022-10-29T10:49:29;10.82;;;3.60;;
74920;SDS011;63483;47.384;8.860;2022-10-29T10:51:58;9.43;;;2.65;;
74920;SDS011;63483;47.384;8.860;2022-10-29T10:54:28;11.73;;;2.60;;
74920;SDS011;63483;47.384;8.860;2022-10-29T10:57:00;11.25;;;2.70;;
74920;SDS011;63483;47.384;8.860;2022-10-29T11:02:14;9.50;;;2.80;;
74920;SDS011;63483;47.384;8.860;2022-10-29T11:04:50;9.05;;;2.22;;
74920;SDS011;63483;47.384;8.860;2022-10-29T11:07:21;6.17;;;2.93;;
74920;SDS011;63483;47.384;8.860;2022-10-29T11:09:49;11.25;;;2.55;;
74920;SDS011;63483;47.384;8.860;2022-10-29T11:17:53;6.50;;;2.40;;
74920;SDS011;63483;47.384;8.860;2022-10-29T11:20:27;11.95;;;2.97;;
74920;SDS011;63483;47.384;8.860;2022-10-29T11:25:28;10.73;;;2.00;;
74920;SDS011;63483;47.384;8.860;2022-10-29T11:28:08;7.95;;;1.98;;
74920;SDS011;63483;47.384;8.860;2022-10-29T11:30:57;6.30;;;2.00;;
74920;SDS011;63483;47.384;8.860;2022-10-29T11:36:21;9.50;;;2.47;;
74920;SDS011;63483;47.384;8.860;2022-10-29T11:41:57;8.35;;;2.40;;
74920;SDS011;63483;47.384;8.860;2022-10-29T11:44:24;9.25;;;2.25;;
74920;SDS011;63483;47.384;8.860;2022-10-29T11:52:21;8.00;;;2.20;;
74920;SDS011;63483;47.384;8.860;2022-10-29T11:57:57;7.07;;;2.47;;
74920;SDS011;63483;47.384;8.860;2022-10-29T12:00:26;8.38;;;2.05;;
74920;SDS011;63483;47.384;8.860;2022-10-29T12:03:21;8.50;;;2.53;;
74920;SDS011;63483;47.384;8.860;2022-10-29T12:05:53;7.03;;;2.03;;
74920;SDS011;63483;47.384;8.860;2022-10-29T12:11:24;7.50;;;2.50;;
74920;SDS011;63483;47.384;8.860;2022-10-29T12:17:00;9.43;;;2.63;;
74920;SDS011;63483;47.384;8.860;2022-10-29T12:22:49;8.68;;;3.05;;
74920;SDS011;63483;47.384;8.860;2022-10-29T12:25:26;11.07;;;2.97;;
74920;SDS011;63483;47.384;8.860;2022-10-29T12:28:15;9.57;;;2.83;;
74920;SDS011;63483;47.384;8.860;2022-10-29T12:33:23;9.77;;;2.47;;
74920;SDS011;63483;47.384;8.860;2022-10-29T12:36:02;8.30;;;2.28;;
74920;SDS011;63483;47.384;8.860;2022-10-29T12:38:41;10.65;;;1.77;;
74920;SDS011;63483;47.384;8.860;2022-10-29T12:41:16;6.18;;;2.22;;
74920;SDS011;63483;47.384;8.860;2022-10-29T12:43:47;8.23;;;1.70;;
74920;SDS011;63483;47.384;8.860;2022-10-29T12:49:32;9.32;;;3.05;;
74920;SDS011;63483;47.384;8.860;2022-10-29T12:52:02;6.55;;;2.20;;
74920;SDS011;63483;47.384;8.860;2022-10-29T12:57:02;9.60;;;2.37;;
74920;SDS011;63483;47.384;8.860;2022-10-29T12:59:30;9.07;;;2.00;;
74920;SDS011;63483;47.384;8.860;2022-10-29T13:07:29;13.33;;;2.90;;
74920;SDS011;63483;47.384;8.860;2022-10-29T13:15:44;9.50;;;2.80;;
74920;SDS011;63483;47.384;8.860;2022-10-29T13:18:21;9.45;;;2.70;;
74920;SDS011;63483;47.384;8.860;2022-10-29T13:20:52;8.32;;;2.90;;
74920;SDS011;63483;47.384;8.860;2022-10-29T13:25:47;12.27;;;3.10;;
74920;SDS011;63483;47.384;8.860;2022-10-29T13:30:39;7.37;;;2.30;;
74920;SDS011;63483;47.384;8.860;2022-10-29T13:35:56;6.43;;;2.40;;
74920;SDS011;63483;47.384;8.860;2022-10-29T13:43:32;9.33;;;2.73;;
74920;SDS011;63483;47.384;8.860;2022-10-29T13:48:52;12.23;;;2.88;;
74920;SDS011;63483;47.384;8.860;2022-10-29T13:51:23;7.70;;;2.63;;
74920;SDS011;63483;47.384;8.860;2022-10-29T13:53:59;8.77;;;2.50;;
74920;SDS011;63483;47.384;8.860;2022-10-29T13:56:34;8.10;;;3.00;;
74920;SDS011;63483;47.384;8.860;2022-10-29T13:59:15;8.13;;;2.10;;
74920;SDS011;63483;47.384;8.860;2022-10-29T14:01:53;8.63;;;2.25;;
74920;SDS011;63483;47.384;8.860;2022-10-29T14:04:34;11.43;;;3.22;;
74920;SDS011;63483;47.384;8.860;2022-10-29T14:07:03;8.98;;;3.38;;
74920;SDS011;63483;47.384;8.860;2022-10-29T14:09:44;16.00;;;2.90;;
74920;SDS011;63483;47.384;8.860;2022-10-29T14:12:16;9.95;;;2.75;;
74920;SDS011;63483;47.384;8.860;2022-10-29T14:17:21;10.52;;;2.95;;
74920;SDS011;63483;47.384;8.860;2022-10-29T14:19:50;9.00;;;3.23;;
74920;SDS011;63483;47.384;8.860;2022-10-29T14:24:57;11.18;;;3.55;;
74920;SDS011;63483;47.384;8.860;2022-10-29T14:27:24;14.30;;;3.87;;
74920;SDS011;63483;47.384;8.860;2022-10-29T14:29:50;11.27;;;4.18;;
74920;SDS011;63483;47.384;8.860;2022-10-29T14:32:16;13.13;;;3.63;;
74920;SDS011;63483;47.384;8.860;2022-10-29T14:34:43;12.73;;;4.05;;
74920;SDS011;63483;47.384;8.860;2022-10-29T14:37:22;10.73;;;3.83;;
74920;SDS011;63483;47.384;8.860;2022-10-29T14:39:51;8.48;;;3.97;;
74920;SDS011;63483;47.384;8.860;2022-10-29T14:42:29;13.05;;;4.22;;
74920;SDS011;63483;47.384;8.860;2022-10-29T14:44:57;9.18;;;4.05;;
74920;SDS011;63483;47.384;8.860;2022-10-29T14:47:30;10.65;;;4.25;;
74920;SDS011;63483;47.384;8.860;2022-10-29T14:49:57;10.07;;;4.60;;
74920;SDS011;63483;47.384;8.860;2022-10-29T14:52:34;9.43;;;3.85;;
74920;SDS011;63483;47.384;8.860;2022-10-29T14:55:15;9.05;;;4.53;;
74920;SDS011;63483;47.384;8.860;2022-10-29T14:57:44;10.35;;;4.72;;
74920;SDS011;63483;47.384;8.860;2022-10-29T15:00:31;10.10;;;4.15;;
74920;SDS011;63483;47.384;8.860;2022-10-29T15:03:00;10.47;;;3.87;;
74920;SDS011;63483;47.384;8.860;2022-10-29T15:05:28;8.48;;;3.45;;
74920;SDS011;63483;47.384;8.860;2022-10-29T15:08:03;10.52;;;4.10;;
74920;SDS011;63483;47.384;8.860;2022-10-29T15:10:48;12.07;;;4.28;;
74920;SDS011;63483;47.384;8.860;2022-10-29T15:13:22;8.95;;;3.90;;
74920;SDS011;63483;47.384;8.860;2022-10-29T15:16:04;12.47;;;4.47;;
74920;SDS011;63483;47.384;8.860;2022-10-29T15:18:32;9.07;;;2.90;;
74920;SDS011;63483;47.384;8.860;2022-10-29T15:20:59;11.73;;;3.65;;
74920;SDS011;63483;47.384;8.860;2022-10-29T15:23:40;8.65;;;2.95;;
74920;SDS011;63483;47.384;8.860;2022-10-29T15:26:08;8.07;;;3.08;;
74920;SDS011;63483;47.384;8.860;2022-10-29T15:28:39;7.93;;;2.83;;
74920;SDS011;63483;47.384;8.860;2022-10-29T15:31:10;9.05;;;3.72;;
74920;SDS011;63483;47.384;8.860;2022-10-29T15:33:45;9.27;;;3.83;;
74920;SDS011;63483;47.384;8.860;2022-10-29T15:36:13;9.85;;;3.53;;
74920;SDS011;63483;47.384;8.860;2022-10-29T15:43:48;11.03;;;3.07;;
74920;SDS011;63483;47.384;8.860;2022-10-29T15:47:02;8.85;;;3.42;;
74920;SDS011;63483;47.384;8.860;2022-10-29T15:49:15;9.87;;;3.37;;
74920;SDS011;63483;47.384;8.860;2022-10-29T15:51:40;9.20;;;3.17;;
74920;SDS011;63483;47.384;8.860;2022-10-29T15:54:07;10.63;;;3.10;;
74920;SDS011;63483;47.384;8.860;2022-10-29T15:56:38;9.60;;;4.07;;
74920;SDS011;63483;47.384;8.860;2022-10-29T15:59:03;9.23;;;3.15;;
74920;SDS011;63483;47.384;8.860;2022-10-29T16:01:29;9.40;;;3.70;;
74920;SDS011;63483;47.384;8.860;2022-10-29T16:03:54;8.77;;;3.47;;
74920;SDS011;63483;47.384;8.860;2022-10-29T16:06:20;7.77;;;3.17;;
74920;SDS011;63483;47.384;8.860;2022-10-29T16:08:46;13.90;;;3.63;;
74920;SDS011;63483;47.384;8.860;2022-10-29T16:11:16;7.30;;;3.65;;
74920;SDS011;63483;47.384;8.860;2022-10-29T16:13:46;10.37;;;4.27;;
74920;SDS011;63483;47.384;8.860;2022-10-29T16:16:12;11.80;;;4.03;;
74920;SDS011;63483;47.384;8.860;2022-10-29T16:18:41;9.35;;;3.33;;
74920;SDS011;63483;47.384;8.860;2022-10-29T16:21:07;8.45;;;3.38;;
74920;SDS011;63483;47.384;8.860;2022-10-29T16:23:32;7.87;;;2.83;;
74920;SDS011;63483;47.384;8.860;2022-10-29T16:26:01;7.77;;;3.97;;
74920;SDS011;63483;47.384;8.860;2022-10-29T16:28:26;9.48;;;3.90;;
74920;SDS011;63483;47.384;8.860;2022-10-29T16:30:53;11.23;;;3.70;;
74920;SDS011;63483;47.384;8.860;2022-10-29T16:33:21;8.38;;;4.03;;
74920;SDS011;63483;47.384;8.860;2022-10-29T16:35:46;11.57;;;3.53;;
74920;SDS011;63483;47.384;8.860;2022-10-29T16:38:12;11.57;;;5.07;;
74920;SDS011;63483;47.384;8.860;2022-10-29T16:40:37;12.23;;;4.10;;
74920;SDS011;63483;47.384;8.860;2022-10-29T16:43:03;8.88;;;4.20;;
74920;SDS011;63483;47.384;8.860;2022-10-29T16:45:29;12.33;;;4.60;;
74920;SDS011;63483;47.384;8.860;2022-10-29T16:47:56;8.45;;;4.40;;
74920;SDS011;63483;47.384;8.860;2022-10-29T16:50:23;8.93;;;3.50;;
74920;SDS011;63483;47.384;8.860;2022-10-29T16:52:57;9.48;;;4.20;;
74920;SDS011;63483;47.384;8.860;2022-10-29T16:55:27;8.17;;;4.40;;
74920;SDS011;63483;47.384;8.860;2022-10-29T16:57:53;14.35;;;5.60;;
74920;SDS011;63483;47.384;8.860;2022-10-29T17:00:18;11.87;;;5.53;;
74920;SDS011;63483;47.384;8.860;2022-10-29T17:02:44;10.50;;;5.65;;
74920;SDS011;63483;47.384;8.860;2022-10-29T17:05:10;13.80;;;6.07;;
74920;SDS011;63483;47.384;8.860;2022-10-29T17:07:36;14.70;;;5.32;;
74920;SDS011;63483;47.384;8.860;2022-10-29T17:10:02;9.07;;;5.33;;